Time;durP1;ratioP1;P1;durP2;ratioP2;P2;SDS_P1;SDS_P2;PMS_P1;PMS_P2;Temp;Humidity;BMP_temperature;BMP_pressure;BME280_temperature;BME280_humidity;BME280_pressure;Samples;Min_cycle;Max_cycle;Signal;HPM_P1;HPM_P2
2023/03/28 00:01:04;;;;;;;;;;;23.70;24.20;;;;;;5124022;27;19911;-62
2023/03/28 00:03:34;;;;;;;;;;;23.50;23.30;;;;;;5112147;27;19919;-63
2023/03/28 00:06:00;;;;;;;;;;;22.50;25.20;;;;;;5112111;27;20012;-65
2023/03/28 00:08:30;;;;;;;;;;;23.30;24.40;;;;;;5119514;27;19916;-65
2023/03/28 00:11:10;;;;;;;;;;;23.20;25.40;;;;;;5119874;27;19952;-65
2023/03/28 00:13:36;;;;;;;;;;;23.10;23.10;;;;;;5111689;27;19938;-66
2023/03/28 00:16:07;;;;;;;;;;;23.30;25.20;;;;;;5111528;27;19925;-67
2023/03/28 00:18:36;;;;;;;;;;;23.20;25.30;;;;;;5112600;27;19942;-68
2023/03/28 00:21:02;;;;;;;;;;;23.00;23.80;;;;;;5123748;27;19988;-65
2023/03/28 00:23:29;;;;;;;;;;;23.20;23.40;;;;;;5119511;27;20024;-64
2023/03/28 00:25:56;;;;;;;;;;;22.60;22.40;;;;;;5124534;27;19941;-64
2023/03/28 00:28:22;;;;;;;;;;;22.80;23.30;;;;;;5098163;27;19932;-63
2023/03/28 00:30:48;;;;;;;;;;;22.80;23.60;;;;;;5113827;27;19926;-66
2023/03/28 00:33:14;;;;;;;;;;;22.70;23.10;;;;;;5123320;27;19955;-63
2023/03/28 00:35:40;;;;;;;;;;;23.60;24.40;;;;;;5117124;27;20009;-64
2023/03/28 00:38:06;;;;;;;;;;;22.60;25.80;;;;;;5115039;27;20019;-64
2023/03/28 00:40:37;;;;;;;;;;;22.50;26.50;;;;;;5121855;27;19920;-65
2023/03/28 00:43:03;;;;;;;;;;;22.50;24.30;;;;;;5116311;27;20738;-66
2023/03/28 00:45:29;;;;;;;;;;;22.30;25.60;;;;;;5119565;27;20381;-66
2023/03/28 00:48:00;;;;;;;;;;;22.20;26.50;;;;;;5119849;27;19927;-63
2023/03/28 00:50:29;;;;;;;;;;;22.10;26.10;;;;;;5121052;27;19952;-64
2023/03/28 00:53:03;;;;;;;;;;;22.30;26.70;;;;;;5116666;27;20019;-65
2023/03/28 00:55:31;;;;;;;;;;;21.80;23.00;;;;;;5122907;27;19929;-62
2023/03/28 00:57:57;;;;;;;;;;;22.00;26.10;;;;;;5120963;27;19924;-62
2023/03/28 01:00:23;;;;;;;;;;;22.20;26.00;;;;;;5121776;27;19926;-64
2023/03/28 01:02:52;;;;;;;;;;;21.90;27.60;;;;;;5122535;27;19950;-63
2023/03/28 01:05:21;;;;;;;;;;;22.10;27.50;;;;;;5111018;27;21311;-66
2023/03/28 01:07:50;;;;;;;;;;;21.90;25.80;;;;;;5120258;27;20049;-65
2023/03/28 01:10:16;;;;;;;;;;;21.70;27.50;;;;;;5123533;27;20277;-63
2023/03/28 01:12:42;;;;;;;;;;;21.80;28.30;;;;;;5117165;27;19932;-63
2023/03/28 01:15:09;;;;;;;;;;;21.50;28.20;;;;;;5117759;27;19942;-65
2023/03/28 01:17:35;;;;;;;;;;;21.50;25.70;;;;;;5119246;27;20017;-66
2023/03/28 01:20:08;;;;;;;;;;;21.60;25.10;;;;;;5119261;27;19928;-66
2023/03/28 01:22:46;;;;;;;;;;;21.30;28.50;;;;;;5123397;27;19961;-64
2023/03/28 01:25:30;;;;;;;;;;;21.80;26.70;;;;;;5116117;27;20394;-62
2023/03/28 01:28:02;;;;;;;;;;;21.00;28.40;;;;;;5119449;27;19955;-64
2023/03/28 01:30:52;;;;;;;;;;;20.80;24.80;;;;;;5120157;27;20437;-65
2023/03/28 01:33:33;;;;;;;;;;;20.70;25.00;;;;;;5111713;27;20872;-66
2023/03/28 01:36:11;;;;;;;;;;;20.70;25.00;;;;;;5116989;27;19963;-65
2023/03/28 01:38:55;;;;;;;;;;;20.50;25.00;;;;;;5116775;27;19971;-63
2023/03/28 01:41:27;;;;;;;;;;;20.40;25.20;;;;;;5121135;27;19978;-66
2023/03/28 01:43:56;;;;;;;;;;;20.30;25.10;;;;;;5119726;27;20059;-65
2023/03/28 01:46:26;;;;;;;;;;;20.20;25.10;;;;;;5120350;27;19927;-64
2023/03/28 01:48:52;;;;;;;;;;;20.30;31.20;;;;;;5119176;27;19949;-66
2023/03/28 01:51:37;;;;;;;;;;;20.40;29.70;;;;;;5117197;27;19929;-62
2023/03/28 01:54:16;;;;;;;;;;;20.10;26.50;;;;;;5117207;27;19947;-63
2023/03/28 01:56:49;;;;;;;;;;;20.00;26.30;;;;;;5121216;27;19938;-65
2023/03/28 01:59:15;;;;;;;;;;;20.00;27.70;;;;;;5123745;27;20442;-64
2023/03/28 02:01:59;;;;;;;;;;;19.90;29.20;;;;;;5118633;27;20037;-64
2023/03/28 02:04:28;;;;;;;;;;;20.00;28.00;;;;;;5119296;27;19952;-64
2023/03/28 02:06:55;;;;;;;;;;;19.80;30.40;;;;;;5113546;27;20289;-65
2023/03/28 02:09:22;;;;;;;;;;;19.80;30.50;;;;;;5117974;27;20452;-65
2023/03/28 02:11:50;;;;;;;;;;;19.70;30.50;;;;;;5118250;27;19931;-64
2023/03/28 02:14:18;;;;;;;;;;;19.60;30.30;;;;;;5119127;27;20351;-64
2023/03/28 02:16:44;;;;;;;;;;;19.70;31.30;;;;;;5114441;27;19930;-65
2023/03/28 02:19:11;;;;;;;;;;;19.60;31.40;;;;;;5122760;27;20359;-65
2023/03/28 02:21:57;;;;;;;;;;;19.40;32.10;;;;;;5117722;27;20017;-64
2023/03/28 02:24:24;;;;;;;;;;;19.60;33.60;;;;;;5114481;27;20015;-66
2023/03/28 02:26:51;;;;;;;;;;;19.50;31.60;;;;;;5117756;27;20328;-64
2023/03/28 02:29:17;;;;;;;;;;;19.20;31.70;;;;;;5118234;27;19951;-64
2023/03/28 02:31:44;;;;;;;;;;;19.20;31.20;;;;;;5118488;27;20422;-62
2023/03/28 02:34:10;;;;;;;;;;;19.30;30.00;;;;;;5119259;27;19958;-63
2023/03/28 02:36:42;;;;;;;;;;;19.10;29.00;;;;;;5121122;27;20084;-64
2023/03/28 02:39:31;;;;;;;;;;;19.00;29.00;;;;;;5116769;27;20019;-64
2023/03/28 02:42:09;;;;;;;;;;;19.60;27.40;;;;;;5101331;27;20330;-64
2023/03/28 02:44:35;;;;;;;;;;;19.00;27.20;;;;;;5120719;27;19947;-64
2023/03/28 02:47:07;;;;;;;;;;;18.80;28.20;;;;;;5118723;27;19953;-65
2023/03/28 02:49:45;;;;;;;;;;;18.90;26.80;;;;;;5115140;27;19935;-64
2023/03/28 02:52:39;;;;;;;;;;;19.10;29.40;;;;;;5118393;27;19935;-65
2023/03/28 02:55:24;;;;;;;;;;;18.80;27.30;;;;;;5115478;27;19939;-63
2023/03/28 02:57:55;;;;;;;;;;;18.80;27.80;;;;;;5114747;27;19981;-63
2023/03/28 03:00:21;;;;;;;;;;;18.70;30.40;;;;;;5112580;27;19972;-63
2023/03/28 03:02:50;;;;;;;;;;;18.70;30.90;;;;;;5117082;27;19956;-62
2023/03/28 03:05:18;;;;;;;;;;;18.70;31.30;;;;;;5117330;27;19935;-63
2023/03/28 03:07:45;;;;;;;;;;;18.60;31.20;;;;;;5111950;27;19949;-65
2023/03/28 03:10:13;;;;;;;;;;;18.60;31.90;;;;;;5115023;27;20020;-64
2023/03/28 03:12:39;;;;;;;;;;;18.50;31.80;;;;;;5119429;27;19941;-63
2023/03/28 03:15:06;;;;;;;;;;;18.50;32.60;;;;;;5115731;27;20025;-64
2023/03/28 03:17:32;;;;;;;;;;;18.50;32.20;;;;;;5113676;27;19938;-61
2023/03/28 03:19:58;;;;;;;;;;;18.40;33.50;;;;;;5117401;27;19950;-64
2023/03/28 03:22:24;;;;;;;;;;;18.40;35.30;;;;;;5118025;27;20009;-65
2023/03/28 03:24:50;;;;;;;;;;;18.50;34.50;;;;;;5121904;27;19928;-64
2023/03/28 03:27:20;;;;;;;;;;;18.50;34.40;;;;;;5119294;27;19936;-65
2023/03/28 03:29:47;;;;;;;;;;;18.20;31.20;;;;;;5097617;28;19939;-63
2023/03/28 03:32:13;;;;;;;;;;;18.10;32.20;;;;;;5119617;28;19934;-63
2023/03/28 03:34:40;;;;;;;;;;;18.00;32.30;;;;;;5118505;28;19937;-64
2023/03/28 03:37:08;;;;;;;;;;;17.90;31.20;;;;;;5119921;28;19937;-64
2023/03/28 03:39:35;;;;;;;;;;;18.10;33.30;;;;;;5116115;28;20022;-64
2023/03/28 03:42:01;;;;;;;;;;;17.90;31.50;;;;;;5114017;28;19950;-64
2023/03/28 03:44:27;;;;;;;;;;;18.30;31.30;;;;;;5117155;28;19987;-63
2023/03/28 03:46:53;;;;;;;;;;;18.10;33.20;;;;;;5115274;28;19940;-63
2023/03/28 03:49:19;;;;;;;;;;;17.80;32.10;;;;;;5116303;28;19932;-64
2023/03/28 03:51:45;;;;;;;;;;;18.00;34.10;;;;;;5119381;28;19930;-65
2023/03/28 03:54:11;;;;;;;;;;;17.90;34.90;;;;;;5115931;28;20022;-66
2023/03/28 03:56:37;;;;;;;;;;;17.70;35.30;;;;;;5115210;28;19935;-65
2023/03/28 03:59:04;;;;;;;;;;;17.90;34.90;;;;;;5120840;28;19941;-64
2023/03/28 04:01:30;;;;;;;;;;;17.50;33.10;;;;;;5113778;28;19979;-65
2023/03/28 04:03:56;;;;;;;;;;;17.40;36.60;;;;;;5117201;28;20429;-65
2023/03/28 04:06:23;;;;;;;;;;;17.90;35.30;;;;;;5111361;28;20313;-65
2023/03/28 04:08:50;;;;;;;;;;;17.60;37.20;;;;;;5112534;28;20008;-63
2023/03/28 04:11:16;;;;;;;;;;;17.50;36.80;;;;;;5117241;28;20424;-64
2023/03/28 04:13:42;;;;;;;;;;;17.50;38.00;;;;;;5116661;28;19981;-65
2023/03/28 04:16:10;;;;;;;;;;;17.50;35.30;;;;;;5112115;28;19955;-62
2023/03/28 04:18:36;;;;;;;;;;;17.20;36.60;;;;;;5116661;28;19955;-63
2023/03/28 04:21:02;;;;;;;;;;;17.40;29.00;;;;;;5116116;28;19979;-64
2023/03/28 04:23:28;;;;;;;;;;;17.40;28.70;;;;;;5119401;28;19980;-66
2023/03/28 04:25:57;;;;;;;;;;;17.40;29.30;;;;;;5117926;28;19940;-64
2023/03/28 04:28:24;;;;;;;;;;;17.40;30.10;;;;;;5114949;28;20314;-64
2023/03/28 04:30:56;;;;;;;;;;;17.00;32.10;;;;;;5114408;28;20039;-64
2023/03/28 04:33:24;;;;;;;;;;;17.10;33.80;;;;;;5116899;28;19936;-63
2023/03/28 04:35:59;;;;;;;;;;;17.30;33.30;;;;;;5111374;28;19946;-65
2023/03/28 04:38:25;;;;;;;;;;;17.00;34.10;;;;;;5108767;28;20017;-65
2023/03/28 04:40:56;;;;;;;;;;;17.20;33.90;;;;;;5108403;28;19955;-65
2023/03/28 04:43:26;;;;;;;;;;;17.00;34.10;;;;;;5108889;28;19997;-65
2023/03/28 04:45:52;;;;;;;;;;;16.90;37.60;;;;;;5106715;28;20307;-65
2023/03/28 04:48:18;;;;;;;;;;;17.20;36.90;;;;;;5112895;28;19965;-64
2023/03/28 04:50:44;;;;;;;;;;;16.80;34.40;;;;;;5112074;27;19934;-62
2023/03/28 04:53:11;;;;;;;;;;;16.90;33.80;;;;;;5116761;27;20037;-64
2023/03/28 04:55:38;;;;;;;;;;;16.80;33.10;;;;;;5114419;27;19999;-64
2023/03/28 04:58:05;;;;;;;;;;;16.90;33.00;;;;;;5120888;27;19947;-64
2023/03/28 05:00:31;;;;;;;;;;;16.70;33.00;;;;;;5114703;27;20351;-61
2023/03/28 05:03:00;;;;;;;;;;;16.80;32.90;;;;;;5117065;27;19964;-64
2023/03/28 05:05:26;;;;;;;;;;;16.70;38.60;;;;;;5119672;27;19935;-64
2023/03/28 05:07:52;;;;;;;;;;;16.50;38.20;;;;;;5113038;27;20318;-61
2023/03/28 05:10:19;;;;;;;;;;;16.20;38.50;;;;;;5115955;27;19937;-62
2023/03/28 05:12:45;;;;;;;;;;;16.40;38.90;;;;;;5119648;27;19921;-63
2023/03/28 05:15:11;;;;;;;;;;;16.50;40.10;;;;;;5118351;27;20013;-64
2023/03/28 05:17:37;;;;;;;;;;;16.70;35.60;;;;;;5121189;27;19953;-63
2023/03/28 05:20:08;;;;;;;;;;;16.40;40.40;;;;;;5118617;27;20398;-62
2023/03/28 05:22:35;;;;;;;;;;;16.40;37.40;;;;;;5121953;27;19964;-62
2023/03/28 05:25:01;;;;;;;;;;;16.50;37.80;;;;;;5121956;27;19929;-65
2023/03/28 05:27:27;;;;;;;;;;;16.40;35.60;;;;;;5119388;27;19932;-64
2023/03/28 05:29:53;;;;;;;;;;;16.20;38.70;;;;;;5119992;27;19928;-64
2023/03/28 05:32:19;;;;;;;;;;;16.20;36.10;;;;;;5121510;27;19990;-62
2023/03/28 05:34:45;;;;;;;;;;;16.40;36.80;;;;;;5116284;27;19941;-62
2023/03/28 05:37:11;;;;;;;;;;;16.40;36.20;;;;;;5119888;27;19931;-64
2023/03/28 05:39:38;;;;;;;;;;;16.10;36.30;;;;;;5117581;27;19954;-63
2023/03/28 05:42:05;;;;;;;;;;;16.10;36.60;;;;;;5115790;27;19939;-63
2023/03/28 05:44:31;;;;;;;;;;;16.10;39.50;;;;;;5112180;27;20017;-64
2023/03/28 05:46:57;;;;;;;;;;;16.10;40.30;;;;;;5120493;27;19949;-64
2023/03/28 05:49:23;;;;;;;;;;;16.10;37.90;;;;;;5121082;27;20316;-66
2023/03/28 05:51:49;;;;;;;;;;;15.90;41.10;;;;;;5114890;27;20396;-63
2023/03/28 05:54:15;;;;;;;;;;;16.00;38.70;;;;;;5121555;27;19930;-65
2023/03/28 05:56:41;;;;;;;;;;;16.10;40.30;;;;;;5116605;27;19941;-65
2023/03/28 05:59:07;;;;;;;;;;;15.90;40.00;;;;;;5114737;27;19971;-65
2023/03/28 06:01:33;;;;;;;;;;;15.90;39.90;;;;;;5101861;27;19934;-65
2023/03/28 06:03:59;;;;;;;;;;;15.70;38.40;;;;;;5118215;27;19944;-62
2023/03/28 06:06:26;;;;;;;;;;;15.80;39.90;;;;;;5118369;27;21666;-63
2023/03/28 06:08:52;;;;;;;;;;;15.70;38.70;;;;;;5111199;27;20375;-63
2023/03/28 06:11:18;;;;;;;;;;;15.70;39.10;;;;;;5114908;27;20339;-63
2023/03/28 06:13:44;;;;;;;;;;;15.30;38.90;;;;;;5117781;27;19932;-64
2023/03/28 06:16:10;;;;;;;;;;;15.80;37.70;;;;;;5122959;27;19933;-63
2023/03/28 06:18:36;;;;;;;;;;;15.50;36.60;;;;;;5114123;27;19940;-62
2023/03/28 06:21:02;;;;;;;;;;;15.40;39.20;;;;;;5119425;27;19990;-64
2023/03/28 06:23:28;;;;;;;;;;;15.50;39.50;;;;;;5121017;27;19972;-64
2023/03/28 06:25:55;;;;;;;;;;;15.40;39.20;;;;;;5115532;27;19940;-64
2023/03/28 06:28:21;;;;;;;;;;;15.30;38.00;;;;;;5118577;27;19953;-63
2023/03/28 06:30:48;;;;;;;;;;;15.30;37.80;;;;;;5119900;27;19937;-64
2023/03/28 06:33:14;;;;;;;;;;;15.40;38.60;;;;;;5116385;27;19939;-64
2023/03/28 06:35:40;;;;;;;;;;;14.00;37.50;;;;;;5121832;27;19953;-62
2023/03/28 06:38:06;;;;;;;;;;;15.60;37.40;;;;;;5115616;27;20031;-63
2023/03/28 06:40:32;;;;;;;;;;;15.20;31.40;;;;;;5118477;27;19960;-64
2023/03/28 06:42:59;;;;;;;;;;;15.40;30.60;;;;;;5121455;27;19972;-63
2023/03/28 06:45:25;;;;;;;;;;;15.20;31.50;;;;;;5118250;27;19935;-63
2023/03/28 06:47:51;;;;;;;;;;;15.60;34.60;;;;;;5112299;27;19935;-64
2023/03/28 06:50:17;;;;;;;;;;;15.10;36.10;;;;;;5111194;27;19944;-63
2023/03/28 06:52:43;;;;;;;;;;;14.90;35.80;;;;;;5116702;27;19939;-64
2023/03/28 06:55:10;;;;;;;;;;;15.60;35.00;;;;;;5116973;27;19998;-64
2023/03/28 06:57:37;;;;;;;;;;;15.10;30.20;;;;;;5120159;27;19992;-64
2023/03/28 07:00:04;;;;;;;;;;;15.10;30.60;;;;;;5114933;27;19952;-65
2023/03/28 07:02:30;;;;;;;;;;;15.20;31.60;;;;;;5114712;27;20007;-64
2023/03/28 07:04:56;;;;;;;;;;;15.40;34.20;;;;;;5116547;27;20001;-62
2023/03/28 07:07:22;;;;;;;;;;;15.10;33.70;;;;;;5118317;27;20430;-64
2023/03/28 07:09:50;;;;;;;;;;;15.50;35.30;;;;;;5113398;27;19962;-65
2023/03/28 07:12:17;;;;;;;;;;;15.10;35.40;;;;;;5114756;27;19938;-63
2023/03/28 07:14:43;;;;;;;;;;;15.10;37.00;;;;;;5120047;27;20408;-64
2023/03/28 07:17:10;;;;;;;;;;;15.10;36.50;;;;;;5116936;27;19935;-64
2023/03/28 07:19:36;;;;;;;;;;;14.90;37.00;;;;;;5117579;27;19952;-65
2023/03/28 07:22:02;;;;;;;;;;;15.10;35.80;;;;;;5117556;27;19967;-65
2023/03/28 07:24:28;;;;;;;;;;;15.00;36.40;;;;;;5115105;27;19954;-64
2023/03/28 07:26:55;;;;;;;;;;;15.00;36.20;;;;;;5120139;27;20022;-64
2023/03/28 07:29:21;;;;;;;;;;;15.20;37.20;;;;;;5116008;28;19989;-64
2023/03/28 07:31:47;;;;;;;;;;;14.90;37.00;;;;;;5115501;28;19994;-63
2023/03/28 07:34:15;;;;;;;;;;;14.90;38.30;;;;;;5120584;28;19950;-64
2023/03/28 07:36:42;;;;;;;;;;;14.90;37.20;;;;;;5115086;28;19936;-65
2023/03/28 07:39:08;;;;;;;;;;;14.80;37.40;;;;;;5117511;28;19937;-63
2023/03/28 07:41:34;;;;;;;;;;;15.10;36.60;;;;;;5115685;28;20054;-64
2023/03/28 07:44:00;;;;;;;;;;;14.80;37.00;;;;;;5120896;28;20371;-65
2023/03/28 07:46:26;;;;;;;;;;;14.80;37.90;;;;;;5114738;28;20407;-65
2023/03/28 07:48:53;;;;;;;;;;;14.80;38.20;;;;;;5116737;28;19956;-64
2023/03/28 07:51:19;;;;;;;;;;;14.60;38.10;;;;;;5116435;28;19933;-66
2023/03/28 07:53:46;;;;;;;;;;;14.60;37.40;;;;;;5114830;28;19940;-65
2023/03/28 07:56:12;;;;;;;;;;;15.10;39.00;;;;;;5117214;28;19984;-66
2023/03/28 07:58:39;;;;;;;;;;;14.80;37.30;;;;;;5118802;28;20396;-64
2023/03/28 08:01:07;;;;;;;;;;;14.80;36.30;;;;;;5114123;28;20033;-63
2023/03/28 08:03:33;;;;;;;;;;;14.90;36.70;;;;;;5117241;28;19955;-65
2023/03/28 08:06:01;;;;;;;;;;;14.70;38.50;;;;;;5117729;28;19998;-63
2023/03/28 08:08:28;;;;;;;;;;;14.70;38.30;;;;;;5097846;28;19953;-64
2023/03/28 08:10:54;;;;;;;;;;;15.10;40.00;;;;;;5113171;28;20037;-64
2023/03/28 08:13:21;;;;;;;;;;;14.60;36.60;;;;;;5110905;28;20097;-62
2023/03/28 08:15:51;;;;;;;;;;;14.60;39.80;;;;;;5118855;28;19938;-62
2023/03/28 08:18:20;;;;;;;;;;;15.00;36.70;;;;;;5116165;28;19957;-63
2023/03/28 08:20:47;;;;;;;;;;;14.50;41.20;;;;;;5117682;27;20199;-64
2023/03/28 08:23:13;;;;;;;;;;;14.40;39.70;;;;;;5121836;27;19974;-64
2023/03/28 08:25:39;;;;;;;;;;;14.30;40.70;;;;;;5121509;27;19958;-64
2023/03/28 08:28:05;;;;;;;;;;;14.40;39.30;;;;;;5121014;27;20020;-64
2023/03/28 08:30:31;;;;;;;;;;;14.30;39.80;;;;;;5103830;27;19942;-64
2023/03/28 08:32:57;;;;;;;;;;;14.50;38.60;;;;;;5128064;27;19955;-62
2023/03/28 08:35:23;;;;;;;;;;;14.10;39.50;;;;;;5124337;27;21331;-62
2023/03/28 08:37:50;;;;;;;;;;;14.20;40.60;;;;;;5119428;27;20445;-65
2023/03/28 08:40:17;;;;;;;;;;;14.20;40.00;;;;;;5116343;27;19937;-64
2023/03/28 08:42:49;;;;;;;;;;;14.20;39.70;;;;;;5119955;27;20030;-64
2023/03/28 08:45:18;;;;;;;;;;;14.20;39.60;;;;;;5119457;27;19943;-64
2023/03/28 08:48:01;;;;;;;;;;;14.10;37.90;;;;;;5114633;27;20412;-65
2023/03/28 08:50:30;;;;;;;;;;;13.80;37.90;;;;;;5118336;27;20003;-66
2023/03/28 08:52:56;;;;;;;;;;;14.40;37.70;;;;;;5121264;27;19997;-64
2023/03/28 08:55:34;;;;;;;;;;;14.00;39.00;;;;;;5121110;27;19956;-63
2023/03/28 08:58:01;;;;;;;;;;;14.00;35.60;;;;;;5123318;22;19938;-66
2023/03/28 09:00:27;;;;;;;;;;;13.90;36.20;;;;;;5090825;28;20007;-65
2023/03/28 09:02:53;;;;;;;;;;;14.00;40.10;;;;;;5090172;28;19967;-65
2023/03/28 09:05:26;;;;;;;;;;;13.90;39.50;;;;;;5090900;28;19940;-65
2023/03/28 09:07:55;;;;;;;;;;;13.90;38.10;;;;;;5090676;28;20308;-65
2023/03/28 09:10:30;;;;;;;;;;;13.70;43.60;;;;;;5089573;28;19944;-65
2023/03/28 09:13:09;;;;;;;;;;;13.80;42.00;;;;;;5086811;28;20044;-68
2023/03/28 09:15:47;;;;;;;;;;;13.80;44.70;;;;;;5089325;28;20030;-63
2023/03/28 09:18:21;;;;;;;;;;;13.90;39.60;;;;;;5090908;28;19949;-62
2023/03/28 09:21:07;;;;;;;;;;;13.80;40.50;;;;;;5090287;28;20031;-65
2023/03/28 09:23:39;;;;;;;;;;;13.80;43.00;;;;;;5058394;28;19960;-67
2023/03/28 09:26:22;;;;;;;;;;;14.00;40.40;;;;;;5089204;28;19940;-66
2023/03/28 09:28:49;;;;;;;;;;;13.80;39.00;;;;;;5090134;28;19954;-65
2023/03/28 09:31:17;;;;;;;;;;;13.70;40.60;;;;;;5090558;28;20044;-66
2023/03/28 09:33:46;;;;;;;;;;;13.80;41.10;;;;;;5089642;28;19989;-66
2023/03/28 09:36:14;;;;;;;;;;;13.80;41.70;;;;;;5089808;28;19937;-64
2023/03/28 09:38:52;;;;;;;;;;;13.90;41.00;;;;;;5086825;28;19951;-66
2023/03/28 09:41:41;;;;;;;;;;;13.90;41.40;;;;;;5090253;28;19932;-66
2023/03/28 09:44:09;;;;;;;;;;;14.00;37.90;;;;;;5052703;28;19978;-66
2023/03/28 09:46:38;;;;;;;;;;;13.90;40.90;;;;;;5084398;28;20314;-64
2023/03/28 09:49:04;;;;;;;;;;;14.10;38.30;;;;;;5087511;28;20415;-66
2023/03/28 09:51:30;;;;;;;;;;;13.90;40.30;;;;;;5082226;28;20065;-63
2023/03/28 09:53:56;;;;;;;;;;;13.80;40.60;;;;;;5086758;28;21447;-65
2023/03/28 09:56:51;;;;;;;;;;;13.70;41.60;;;;;;5071560;28;20420;-65
2023/03/28 09:59:25;;;;;;;;;;;13.50;38.50;;;;;;5014139;28;19958;-65
2023/03/28 10:01:52;;;;;;;;;;;13.70;38.40;;;;;;5013395;28;19935;-66
2023/03/28 10:04:38;;;;;;;;;;;13.80;40.00;;;;;;5010595;28;19981;-65
2023/03/28 10:07:10;;;;;;;;;;;13.80;41.60;;;;;;5012607;28;20415;-64
2023/03/28 10:09:49;;;;;;;;;;;13.50;39.80;;;;;;5010568;28;19947;-65
2023/03/28 10:12:30;;;;;;;;;;;13.60;40.10;;;;;;5009713;28;20465;-63
2023/03/28 10:14:57;;;;;;;;;;;13.40;42.50;;;;;;5016307;28;20481;-65
2023/03/28 10:17:35;;;;;;;;;;;13.20;42.60;;;;;;5020425;28;19986;-65
2023/03/28 10:20:18;;;;;;;;;;;13.40;40.20;;;;;;5015399;28;19939;-66
2023/03/28 10:22:46;;;;;;;;;;;13.30;40.80;;;;;;5015785;28;19937;-66
2023/03/28 10:25:15;;;;;;;;;;;13.40;43.90;;;;;;5013586;28;20310;-64
2023/03/28 10:27:41;;;;;;;;;;;13.60;43.80;;;;;;5015359;28;19940;-66
2023/03/28 10:30:13;;;;;;;;;;;13.40;44.60;;;;;;5011886;28;19944;-65
2023/03/28 10:32:40;;;;;;;;;;;13.70;43.20;;;;;;5023710;28;20145;-65
2023/03/28 10:35:07;;;;;;;;;;;13.20;45.20;;;;;;5032468;28;19985;-65
2023/03/28 10:37:33;;;;;;;;;;;13.00;46.70;;;;;;5070010;28;19939;-65
2023/03/28 10:40:21;;;;;;;;;;;13.20;45.70;;;;;;5082097;28;19953;-65
2023/03/28 10:42:50;;;;;;;;;;;13.00;43.50;;;;;;5083247;28;20030;-65
2023/03/28 10:45:28;;;;;;;;;;;12.80;42.80;;;;;;5084750;28;20052;-66
2023/03/28 10:47:56;;;;;;;;;;;12.90;42.50;;;;;;5084246;28;19959;-66
2023/03/28 10:50:33;;;;;;;;;;;13.00;47.00;;;;;;5088659;28;19980;-66
2023/03/28 10:53:09;;;;;;;;;;;13.00;44.70;;;;;;5087993;28;20047;-66
2023/03/28 10:55:58;;;;;;;;;;;13.10;43.70;;;;;;5087550;28;19946;-65
2023/03/28 10:58:32;;;;;;;;;;;13.00;43.40;;;;;;5075007;28;19962;-66
2023/03/28 11:01:07;;;;;;;;;;;13.00;42.20;;;;;;5086978;28;20065;-66
2023/03/28 11:03:38;;;;;;;;;;;12.80;40.80;;;;;;5081406;28;19960;-65
2023/03/28 11:06:16;;;;;;;;;;;12.80;39.20;;;;;;5088492;28;20387;-65
2023/03/28 11:09:00;;;;;;;;;;;12.80;37.70;;;;;;5086065;28;20433;-65
2023/03/28 11:11:52;;;;;;;;;;;13.10;42.00;;;;;;5084977;28;20310;-65
2023/03/28 11:14:30;;;;;;;;;;;13.00;43.60;;;;;;5082026;28;19964;-63
2023/03/28 11:16:57;;;;;;;;;;;13.00;42.30;;;;;;5088092;28;20061;-66
2023/03/28 11:19:33;;;;;;;;;;;13.00;43.70;;;;;;5087943;28;19951;-65
2023/03/28 11:22:22;;;;;;;;;;;13.10;44.70;;;;;;5088027;28;19945;-66
2023/03/28 11:24:57;;;;;;;;;;;12.90;41.20;;;;;;5035300;28;19957;-66
2023/03/28 11:27:41;;;;;;;;;;;13.00;41.70;;;;;;5088260;28;19938;-64
2023/03/28 11:30:14;;;;;;;;;;;13.00;42.10;;;;;;5088314;28;20401;-66
2023/03/28 11:32:43;;;;;;;;;;;12.80;41.70;;;;;;5082761;28;20064;-65
2023/03/28 11:35:41;;;;;;;;;;;13.40;42.60;;;;;;5084579;28;20348;-65
2023/03/28 11:38:16;;;;;;;;;;;13.10;42.70;;;;;;5034333;28;19943;-67
2023/03/28 11:40:49;;;;;;;;;;;12.90;40.40;;;;;;5075566;28;20007;-66
2023/03/28 11:43:20;;;;;;;;;;;12.70;41.40;;;;;;5083628;28;20301;-65
2023/03/28 11:45:50;;;;;;;;;;;12.90;43.90;;;;;;5087388;28;19939;-66
2023/03/28 11:48:35;;;;;;;;;;;13.10;44.40;;;;;;5087907;28;20054;-65
2023/03/28 11:51:04;;;;;;;;;;;13.20;41.40;;;;;;5086752;28;19959;-65
2023/03/28 11:53:36;;;;;;;;;;;12.90;40.70;;;;;;5082663;28;19951;-65
2023/03/28 11:56:14;;;;;;;;;;;13.40;40.70;;;;;;5089186;28;19943;-64
2023/03/28 11:58:42;;;;;;;;;;;13.00;40.70;;;;;;5085745;28;20408;-64
2023/03/28 12:01:12;;;;;;;;;;;13.00;43.70;;;;;;5090276;28;20044;-64
2023/03/28 12:04:10;;;;;;;;;;;13.00;43.20;;;;;;5087271;28;20028;-65
2023/03/28 12:06:40;;;;;;;;;;;13.20;40.90;;;;;;5044392;28;19940;-66
2023/03/28 12:09:12;;;;;;;;;;;13.00;44.30;;;;;;5092157;28;19943;-64
2023/03/28 12:11:41;;;;;;;;;;;13.10;40.80;;;;;;5085670;28;20023;-65
2023/03/28 12:14:25;;;;;;;;;;;13.00;41.20;;;;;;5090377;28;20018;-65
2023/03/28 12:16:52;;;;;;;;;;;13.20;42.00;;;;;;5090130;28;19943;-63
2023/03/28 12:19:25;;;;;;;;;;;12.80;43.00;;;;;;5092248;28;19997;-65
2023/03/28 12:21:55;;;;;;;;;;;12.70;42.40;;;;;;5072610;28;20418;-66
2023/03/28 12:24:26;;;;;;;;;;;12.60;44.20;;;;;;5088673;28;19937;-67
2023/03/28 12:27:01;;;;;;;;;;;12.60;46.10;;;;;;5088546;28;19938;-68
2023/03/28 12:29:32;;;;;;;;;;;12.50;43.20;;;;;;5091556;28;19981;-66
2023/03/28 12:32:02;;;;;;;;;;;12.70;46.60;;;;;;5091406;28;19934;-64
2023/03/28 12:34:38;;;;;;;;;;;12.40;46.90;;;;;;5083534;28;20353;-66
2023/03/28 12:37:11;;;;;;;;;;;12.40;45.50;;;;;;5090369;28;20880;-65
2023/03/28 12:39:43;;;;;;;;;;;12.20;48.60;;;;;;5090975;28;19958;-65
2023/03/28 12:42:11;;;;;;;;;;;12.40;45.00;;;;;;5090850;28;20036;-65
2023/03/28 12:44:47;;;;;;;;;;;12.30;47.60;;;;;;5082499;28;20378;-65
2023/03/28 12:47:16;;;;;;;;;;;12.30;44.50;;;;;;5088013;28;20038;-65
2023/03/28 12:49:45;;;;;;;;;;;12.50;49.30;;;;;;5073002;28;20267;-68
2023/03/28 12:52:13;;;;;;;;;;;12.20;47.10;;;;;;5091190;28;20351;-64
2023/03/28 12:54:56;;;;;;;;;;;12.40;48.80;;;;;;5090118;28;19953;-65
2023/03/28 12:57:47;;;;;;;;;;;12.50;45.50;;;;;;5087160;28;19951;-66
2023/03/28 13:00:13;;;;;;;;;;;12.00;46.00;;;;;;5089804;28;19968;-65
2023/03/28 13:02:51;;;;;;;;;;;12.10;49.40;;;;;;5091600;28;19941;-67
2023/03/28 13:05:26;;;;;;;;;;;12.50;46.10;;;;;;5089315;28;19935;-66
2023/03/28 13:07:55;;;;;;;;;;;12.00;46.50;;;;;;5086480;28;19960;-66
2023/03/28 13:10:40;;;;;;;;;;;12.10;49.10;;;;;;5089192;28;20421;-66
2023/03/28 13:13:27;;;;;;;;;;;12.10;47.50;;;;;;5086194;28;20307;-68
2023/03/28 13:15:53;;;;;;;;;;;12.10;50.30;;;;;;5084924;28;19932;-66
2023/03/28 13:18:19;;;;;;;;;;;12.20;49.30;;;;;;5089209;28;19939;-66
2023/03/28 13:20:52;;;;;;;;;;;12.20;49.20;;;;;;5090237;28;20030;-66
2023/03/28 13:23:23;;;;;;;;;;;12.10;51.90;;;;;;5090704;28;19931;-66
2023/03/28 13:25:53;;;;;;;;;;;12.10;51.40;;;;;;5084528;28;20407;-64
2023/03/28 13:28:29;;;;;;;;;;;12.10;49.10;;;;;;5088231;28;19938;-63
2023/03/28 13:31:03;;;;;;;;;;;12.10;49.70;;;;;;5085243;28;19933;-61
2023/03/28 13:33:34;;;;;;;;;;;12.40;50.10;;;;;;5086520;28;19954;-63
2023/03/28 13:36:00;;;;;;;;;;;12.20;52.70;;;;;;5088988;28;20022;-66
2023/03/28 13:38:26;;;;;;;;;;;12.20;50.20;;;;;;5090076;28;20038;-66
2023/03/28 13:40:59;;;;;;;;;;;12.30;51.00;;;;;;5086492;28;20424;-65
2023/03/28 13:43:28;;;;;;;;;;;12.30;49.80;;;;;;5088863;28;20298;-65
2023/03/28 13:45:56;;;;;;;;;;;12.30;50.00;;;;;;5089339;28;19983;-66
2023/03/28 13:48:32;;;;;;;;;;;12.20;54.00;;;;;;5088451;28;20038;-64
2023/03/28 13:50:59;;;;;;;;;;;12.20;50.00;;;;;;5091395;28;19997;-67
2023/03/28 13:53:25;;;;;;;;;;;12.00;55.10;;;;;;5086292;28;19948;-64
2023/03/28 13:56:30;;;;;;;;;;;12.20;54.20;;;;;;5089248;28;19989;-65
2023/03/28 13:58:57;;;;;;;;;;;12.10;50.70;;;;;;5008291;28;19935;-66
2023/03/28 14:01:25;;;;;;;;;;;12.10;53.90;;;;;;5008182;28;19935;-65
2023/03/28 14:03:52;;;;;;;;;;;12.10;53.80;;;;;;5009173;28;20409;-67
2023/03/28 14:06:23;;;;;;;;;;;12.20;55.10;;;;;;5008634;28;20317;-66
2023/03/28 14:08:50;;;;;;;;;;;12.10;53.70;;;;;;5008613;28;20074;-64
2023/03/28 14:11:18;;;;;;;;;;;12.00;51.70;;;;;;5009102;28;20054;-65
2023/03/28 14:13:44;;;;;;;;;;;12.00;43.30;;;;;;5007873;28;19998;-66
2023/03/28 14:16:11;;;;;;;;;;;12.00;42.80;;;;;;5009094;28;20034;-66
2023/03/28 14:18:40;;;;;;;;;;;12.20;45.50;;;;;;5010585;28;19956;-64
2023/03/28 14:21:06;;;;;;;;;;;12.20;50.90;;;;;;5008360;28;20586;-66
2023/03/28 14:23:37;;;;;;;;;;;12.30;50.90;;;;;;5008167;28;19937;-65
2023/03/28 14:26:22;;;;;;;;;;;12.30;46.20;;;;;;5008574;28;19971;-65
2023/03/28 14:28:50;;;;;;;;;;;12.70;45.40;;;;;;5016622;28;19942;-64
2023/03/28 14:31:28;;;;;;;;;;;12.50;47.80;;;;;;5088885;28;19937;-67
2023/03/28 14:33:57;;;;;;;;;;;12.60;45.40;;;;;;5087569;28;19950;-66